Time;durP1;ratioP1;P1;durP2;ratioP2;P2;SDS_P1;SDS_P2;PMS_P1;PMS_P2;Temp;Humidity;BMP_temperature;BMP_pressure;BME280_temperature;BME280_humidity;BME280_pressure;Samples;Min_cycle;Max_cycle;Signal;HPM_P1;HPM_P2
2021/05/06 00:30:19;;;;;;;;;;;;;;;27.81;32.62;100061.34;5036430;28;633;-40
2021/05/06 00:32:52;;;;;;;;;;;;;;;27.83;32.79;100056.53;5050809;28;760;-34
2021/05/06 00:35:17;;;;;;;;;;;;;;;27.87;32.48;100055.94;5036170;28;835;-39
2021/05/06 00:37:56;;;;;;;;;;;;;;;27.84;32.37;100056.34;5036530;28;1979;-40
2021/05/06 00:40:25;;;;;;;;;;;;;;;27.84;32.60;100050.13;5036032;28;952;-40
2021/05/06 00:43:20;;;;;;;;;;;;;;;27.86;32.78;100053.47;5036468;28;791;-40
2021/05/06 01:09:39;;;;;;;;;;;;;;;27.83;32.66;100040.31;5039289;28;1003;-35
2021/05/06 01:12:04;;;;;;;;;;;;;;;27.85;32.55;100035.56;5040062;28;798;-32
2021/05/06 01:14:31;;;;;;;;;;;;;;;27.84;32.80;100037.41;5040026;28;867;-40
2021/05/06 01:16:56;;;;;;;;;;;;;;;27.91;32.65;100037.44;5039977;28;1971;-40
2021/05/06 01:19:21;;;;;;;;;;;;;;;27.82;32.90;100038.66;5040278;28;786;-39
2021/05/06 01:21:46;;;;;;;;;;;;;;;27.85;32.65;100041.81;5039808;28;1348;-40
2021/05/06 01:24:12;;;;;;;;;;;;;;;27.84;32.73;100037.41;5039365;28;960;-40
2021/05/06 01:26:49;;;;;;;;;;;;;;;27.94;32.62;100038.91;5039823;28;770;-40
2021/05/06 01:32:27;;;;;;;;;;;;;;;27.93;32.80;100032.66;5002129;28;1402;-34
2021/05/06 01:34:54;;;;;;;;;;;;;;;27.89;32.81;100036.81;5039257;28;1407;-39
2021/05/06 01:37:26;;;;;;;;;;;;;;;27.89;32.76;100036.81;5039543;28;1910;-34
2021/05/06 01:42:44;;;;;;;;;;;;;;;27.97;32.45;100042.03;4989497;28;1281;-39
2021/05/06 01:58:56;;;;;;;;;;;;;;;27.86;32.79;100031.84;5038706;28;1898;-35
2021/05/06 02:01:21;;;;;;;;;;;;;;;27.89;32.71;100031.41;5038729;28;835;-39
2021/05/06 02:03:46;;;;;;;;;;;;;;;27.86;32.54;100031.84;5039152;28;851;-40
2021/05/06 02:06:12;;;;;;;;;;;;;;;27.90;32.67;100024.97;5038159;28;831;-34
2021/05/06 02:08:37;;;;;;;;;;;;;;;27.91;32.57;100026.63;5038366;28;952;-40
2021/05/06 02:11:03;;;;;;;;;;;;;;;27.89;32.87;100030.56;5039009;28;842;-35
2021/05/06 02:13:28;;;;;;;;;;;;;;;27.87;32.44;100033.47;5038824;28;847;-40
2021/05/06 02:15:58;;;;;;;;;;;;;;;27.93;32.83;100034.53;5038790;28;736;-40
2021/05/06 02:18:24;;;;;;;;;;;;;;;27.98;32.58;100034.72;5038767;28;1968;-40
2021/05/06 02:20:50;;;;;;;;;;;;;;;27.95;32.56;100038.69;5038639;28;1300;-40
2021/05/06 02:23:16;;;;;;;;;;;;;;;27.96;32.35;100039.53;5038374;28;1050;-36
2021/05/06 02:25:41;;;;;;;;;;;;;;;27.95;32.53;100052.22;5038389;28;842;-40
2021/05/06 02:28:06;;;;;;;;;;;;;;;28.02;32.33;100054.09;5038338;28;763;-39
2021/05/06 02:30:32;;;;;;;;;;;;;;;28.03;32.20;100042.25;5038401;28;728;-35
2021/05/06 02:32:57;;;;;;;;;;;;;;;27.98;32.37;100037.44;5038623;28;811;-39
2021/05/06 02:35:22;;;;;;;;;;;;;;;27.95;32.55;100052.22;5038303;28;944;-40
2021/05/06 02:37:48;;;;;;;;;;;;;;;27.95;32.59;100052.22;5053688;28;1906;-39
2021/05/06 02:40:13;;;;;;;;;;;;;;;28.04;32.21;100052.84;5038378;28;1019;-38
2021/05/06 02:42:38;;;;;;;;;;;;;;;27.95;32.41;100046.81;5038176;28;810;-36
2021/05/06 02:45:05;;;;;;;;;;;;;;;27.96;32.34;100048.47;5038423;28;735;-37
2021/05/06 02:47:30;;;;;;;;;;;;;;;27.94;32.60;100055.13;5038200;28;786;-37
2021/05/06 02:49:56;;;;;;;;;;;;;;;28.02;32.63;100054.94;5038035;28;803;-39
2021/05/06 02:52:35;;;;;;;;;;;;;;;27.96;32.49;100050.34;5038279;28;747;-35
2021/05/06 03:02:50;;;;;;;;;;;;;;;27.91;32.53;100072.56;5037568;28;653;-40
2021/05/06 03:05:16;;;;;;;;;;;;;;;27.95;32.30;100081.94;5038003;28;806;-39
2021/05/06 03:07:48;;;;;;;;;;;;;;;27.93;32.63;100086.72;5038239;28;788;-34
2021/05/06 03:22:39;;;;;;;;;;;;;;;27.30;32.43;100110.16;5037337;28;1093;-41
2021/05/06 03:24:15;;;;;;;;;;;;;;;27.35;32.72;100112.25;5036793;28;1423;-40
2021/05/06 03:26:40;;;;;;;;;;;;;;;27.31;32.84;100130.72;5037258;28;823;-40
2021/05/06 03:29:17;;;;;;;;;;;;;;;27.29;32.91;100127.41;5037108;28;874;-41
2021/05/06 03:42:35;;;;;;;;;;;;;;;25.04;35.15;100139.53;5013720;28;1049;-32
2021/05/06 03:46:00;;;;;;;;;;;;;;;24.76;35.68;100141.97;5036828;28;866;-37
2021/05/06 04:17:06;;;;;;;;;;;;;;;25.18;35.92;100183.66;5056470;28;1965;-33
2021/05/06 04:22:24;;;;;;;;;;;;;;;25.10;36.35;100181.03;5057184;28;775;-38
2021/05/06 04:28:04;;;;;;;;;;;;;;;24.90;37.08;100186.06;5036282;28;637;-38
2021/05/06 04:35:44;;;;;;;;;;;;;;;24.98;37.33;100190.56;5040351;28;652;-36
2021/05/06 04:38:10;;;;;;;;;;;;;;;24.97;37.37;100192.44;5040274;28;1918;-35
2021/05/06 04:56:51;;;;;;;;;;;;;;;24.90;37.35;100202.22;5039926;28;637;-34
2021/05/06 05:04:40;;;;;;;;;;;;;;;24.95;37.07;100216.00;5040008;28;617;-37
2021/05/06 05:09:50;;;;;;;;;;;;;;;24.85;37.31;100213.53;5039438;28;941;-37
2021/05/06 05:20:24;;;;;;;;;;;;;;;24.85;37.07;100218.06;5002119;28;1338;-36
2021/05/06 05:27:54;;;;;;;;;;;;;;;24.83;37.17;100223.63;5039857;28;672;-37
2021/05/06 05:30:23;;;;;;;;;;;;;;;24.87;37.14;100229.47;5039558;28;775;-37
2021/05/06 05:32:48;;;;;;;;;;;;;;;24.80;37.54;100223.97;5039730;28;818;-36
2021/05/06 05:35:23;;;;;;;;;;;;;;;24.86;37.36;100227.81;5039732;28;775;-36
2021/05/06 05:37:52;;;;;;;;;;;;;;;24.85;37.42;100218.91;5021459;28;1918;-35
2021/05/06 05:40:22;;;;;;;;;;;;;;;24.81;37.46;100223.81;5039226;28;994;-36
2021/05/06 05:55:58;;;;;;;;;;;;;;;24.78;37.96;100231.38;5039039;28;582;-37
2021/05/06 05:58:23;;;;;;;;;;;;;;;24.81;38.13;100231.88;5038992;28;1910;-36
2021/05/06 06:00:48;;;;;;;;;;;;;;;24.79;38.69;100241.16;5039344;28;768;-35
2021/05/06 06:03:14;;;;;;;;;;;;;;;24.77;38.33;100241.34;5039138;28;871;-34
2021/05/06 06:05:39;;;;;;;;;;;;;;;24.68;38.49;100242.38;5039082;28;760;-39
2021/05/06 06:08:05;;;;;;;;;;;;;;;25.09;37.50;100237.75;5038868;28;827;-37
2021/05/06 06:10:30;;;;;;;;;;;;;;;25.39;36.73;100243.19;5038707;28;944;-37
2021/05/06 06:12:56;;;;;;;;;;;;;;;25.57;36.13;100245.53;5039163;28;751;-37
2021/05/06 06:18:09;;;;;;;;;;;;;;;25.65;36.14;100252.69;5038506;28;1894;-38
2021/05/06 06:20:36;;;;;;;;;;;;;;;25.74;35.86;100248.06;5038554;28;1549;-38
2021/05/06 06:23:01;;;;;;;;;;;;;;;25.71;35.76;100251.13;5038886;28;811;-38
2021/05/06 06:25:27;;;;;;;;;;;;;;;25.65;35.87;100250.84;5037831;28;1018;-39
2021/05/06 06:27:52;;;;;;;;;;;;;;;25.75;35.56;100247.88;5037951;28;816;-39
2021/05/06 06:30:17;;;;;;;;;;;;;;;25.82;35.44;100250.66;5020507;28;1208;-37
2021/05/06 06:32:43;;;;;;;;;;;;;;;25.78;35.53;100254.75;5038475;28;744;-38
2021/05/06 06:35:08;;;;;;;;;;;;;;;25.82;35.54;100247.13;5037903;28;867;-38
2021/05/06 06:37:33;;;;;;;;;;;;;;;25.79;35.63;100249.16;5038364;28;1914;-40
2021/05/06 06:39:59;;;;;;;;;;;;;;;25.86;35.61;100256.53;5052924;28;1023;-37
2021/05/06 06:42:24;;;;;;;;;;;;;;;25.91;35.30;100254.09;5058392;28;818;-36
2021/05/06 06:44:50;;;;;;;;;;;;;;;25.92;35.56;100258.47;5058457;28;839;-37
2021/05/06 06:47:15;;;;;;;;;;;;;;;25.99;35.26;100248.59;5057707;28;811;-37
2021/05/06 06:49:40;;;;;;;;;;;;;;;25.93;35.46;100260.13;5058018;28;823;-38
2021/05/06 06:52:12;;;;;;;;;;;;;;;25.91;35.84;100256.78;5057835;28;799;-37
2021/05/06 06:54:37;;;;;;;;;;;;;;;26.00;35.46;100247.59;5045403;28;1030;-37
2021/05/06 06:57:03;;;;;;;;;;;;;;;26.00;35.80;100258.38;5038260;28;1972;-36
2021/05/06 06:59:29;;;;;;;;;;;;;;;26.07;35.68;100260.31;5037925;28;756;-37
2021/05/06 07:01:54;;;;;;;;;;;;;;;26.08;35.52;100260.13;5037767;28;794;-38
2021/05/06 07:04:19;;;;;;;;;;;;;;;26.19;34.84;100253.41;5038030;28;794;-38
2021/05/06 07:06:45;;;;;;;;;;;;;;;26.22;34.45;100242.25;5037844;28;779;-36
2021/05/06 07:09:10;;;;;;;;;;;;;;;26.15;34.85;100261.03;5037211;28;953;-36
2021/05/06 07:11:36;;;;;;;;;;;;;;;26.23;34.02;100252.00;5037999;28;743;-35
2021/05/06 07:14:02;;;;;;;;;;;;;;;26.35;34.17;100262.31;5037805;28;832;-34
2021/05/06 07:16:27;;;;;;;;;;;;;;;26.31;33.96;100266.41;5037731;28;756;-36
2021/05/06 07:18:52;;;;;;;;;;;;;;;26.42;34.10;100257.84;5037510;28;1961;-37
2021/05/06 07:21:18;;;;;;;;;;;;;;;26.44;34.07;100268.44;5037270;28;1096;-34
2021/05/06 07:23:43;;;;;;;;;;;;;;;26.36;33.76;100264.84;5036826;28;999;-34
2021/05/06 07:26:08;;;;;;;;;;;;;;;26.32;33.65;100270.78;5037586;28;744;-36
2021/05/06 07:28:35;;;;;;;;;;;;;;;26.40;33.48;100268.00;5037310;28;958;-36
2021/05/06 07:31:02;;;;;;;;;;;;;;;26.40;33.35;100270.69;5037446;28;826;-36
2021/05/06 07:33:28;;;;;;;;;;;;;;;26.47;33.32;100271.59;5037135;28;847;-35
2021/05/06 07:35:54;;;;;;;;;;;;;;;26.49;33.45;100277.63;5037391;28;768;-33
2021/05/06 07:38:19;;;;;;;;;;;;;;;26.52;33.83;100265.63;5051444;28;1914;-34
2021/05/06 07:40:45;;;;;;;;;;;;;;;26.62;33.73;100273.41;5037123;28;792;-37
2021/05/06 07:43:10;;;;;;;;;;;;;;;26.67;33.81;100268.28;5037234;28;949;-37
2021/05/06 07:45:35;;;;;;;;;;;;;;;26.72;33.43;100276.66;5037068;28;771;-35
2021/05/06 07:48:01;;;;;;;;;;;;;;;26.66;33.69;100269.28;5037345;28;754;-36
2021/05/06 07:50:26;;;;;;;;;;;;;;;26.65;34.14;100270.34;5037054;28;1066;-34
2021/05/06 07:52:54;;;;;;;;;;;;;;;26.73;33.98;100272.06;5036582;28;1438;-37
2021/05/06 07:55:19;;;;;;;;;;;;;;;26.70;34.09;100264.34;5037022;28;944;-35
2021/05/06 07:57:45;;;;;;;;;;;;;;;26.69;34.46;100274.34;5037033;28;1923;-35
2021/05/06 08:00:12;;;;;;;;;;;;;;;26.76;34.30;100267.13;5036874;28;791;-36
2021/05/06 08:02:38;;;;;;;;;;;;;;;26.75;34.21;100262.78;5036539;28;863;-33
2021/05/06 08:05:03;;;;;;;;;;;;;;;26.76;34.25;100275.22;5036135;28;823;-32
2021/05/06 08:07:28;;;;;;;;;;;;;;;26.85;34.26;100278.63;5037206;28;744;-35
2021/05/06 08:09:54;;;;;;;;;;;;;;;26.95;33.84;100278.31;5036502;28;992;-36
2021/05/06 08:12:20;;;;;;;;;;;;;;;26.93;33.96;100291.16;5036578;28;831;-36
2021/05/06 08:14:46;;;;;;;;;;;;;;;26.99;33.39;100265.25;5037052;28;779;-36
2021/05/06 08:17:11;;;;;;;;;;;;;;;27.00;33.63;100286.66;5036436;28;1906;-35
2021/05/06 08:19:36;;;;;;;;;;;;;;;26.98;33.68;100283.31;5036338;28;1219;-36
2021/05/06 08:22:13;;;;;;;;;;;;;;;27.07;32.90;100285.91;5036733;28;771;-35
2021/05/06 08:24:39;;;;;;;;;;;;;;;27.14;32.39;100293.03;5036365;28;963;-35
2021/05/06 08:27:04;;;;;;;;;;;;;;;27.05;33.01;100285.25;5036569;28;878;-37
2021/05/06 08:29:29;;;;;;;;;;;;;;;27.15;32.94;100285.78;5036582;28;948;-34
2021/05/06 08:31:55;;;;;;;;;;;;;;;27.17;32.54;100281.03;5036499;28;800;-37
2021/05/06 08:34:20;;;;;;;;;;;;;;;27.21;32.65;100287.69;5036325;28;759;-32
2021/05/06 08:36:46;;;;;;;;;;;;;;;27.15;32.93;100288.47;5047429;28;1143;-31
2021/05/06 08:39:11;;;;;;;;;;;;;;;26.98;33.15;100296.81;5047252;28;1973;-35
2021/05/06 08:41:36;;;;;;;;;;;;;;;26.94;33.33;100297.41;5036039;28;756;-34
2021/05/06 08:44:03;;;;;;;;;;;;;;;26.98;33.50;100295.97;5051480;28;1387;-34
2021/05/06 08:46:36;;;;;;;;;;;;;;;27.16;33.15;100297.41;5036446;28;778;-36
2021/05/06 08:49:02;;;;;;;;;;;;;;;27.15;32.99;100301.97;5050520;28;857;-36
2021/05/06 08:54:31;;;;;;;;;;;;;;;26.89;33.31;100323.09;5035820;28;980;-32
2021/05/06 08:56:56;;;;;;;;;;;;;;;27.06;33.40;100322.03;5036053;28;1902;-35
2021/05/06 08:59:22;;;;;;;;;;;;;;;27.10;33.31;100321.47;5018619;28;1175;-37
2021/05/06 09:01:48;;;;;;;;;;;;;;;27.20;32.80;100321.13;5035991;28;819;-36
2021/05/06 09:04:13;;;;;;;;;;;;;;;27.28;32.65;100311.25;5036349;28;755;-33
2021/05/06 09:07:11;;;;;;;;;;;;;;;27.25;32.87;100318.69;5036452;28;815;-32
2021/05/06 09:09:57;;;;;;;;;;;;;;;27.08;32.96;100326.22;5023661;28;1177;-36
2021/05/06 09:12:36;;;;;;;;;;;;;;;27.62;31.97;100331.22;5035910;28;1601;-37
2021/05/06 09:15:06;;;;;;;;;;;;;;;27.85;31.97;100325.59;5036207;28;826;-37
2021/05/06 09:17:33;;;;;;;;;;;;;;;28.01;31.50;100322.78;5039479;28;1894;-34
2021/05/06 09:20:17;;;;;;;;;;;;;;;28.12;31.27;100324.91;5039786;28;1430;-35
2021/05/06 09:22:42;;;;;;;;;;;;;;;28.29;31.22;100320.00;5039106;28;827;-36
2021/05/06 09:25:26;;;;;;;;;;;;;;;28.17;31.36;100325.16;5039598;28;1000;-36
2021/05/06 09:28:03;;;;;;;;;;;;;;;27.72;31.71;100336.31;5039322;28;857;-34
2021/05/06 09:30:29;;;;;;;;;;;;;;;27.77;32.12;100314.09;5039700;28;752;-35
2021/05/06 09:33:01;;;;;;;;;;;;;;;27.77;31.67;100311.41;5039961;28;787;-38
2021/05/06 09:35:26;;;;;;;;;;;;;;;27.65;32.05;100302.97;5039293;28;1579;-33
2021/05/06 09:37:52;;;;;;;;;;;;;;;27.61;32.17;100311.47;5039382;28;1902;-33
2021/05/06 09:40:17;;;;;;;;;;;;;;;27.54;32.41;100313.31;5039571;28;996;-34
2021/05/06 09:42:45;;;;;;;;;;;;;;;27.71;32.58;100310.34;5039242;28;759;-37
2021/05/06 09:45:18;;;;;;;;;;;;;;;27.85;32.27;100328.31;5039505;28;807;-37
2021/05/06 09:47:44;;;;;;;;;;;;;;;27.93;31.91;100304.81;5039313;28;790;-38
2021/05/06 09:50:21;;;;;;;;;;;;;;;27.89;31.64;100299.00;5039253;28;881;-34
2021/05/06 09:52:53;;;;;;;;;;;;;;;27.92;31.90;100303.16;5038978;28;859;-34
2021/05/06 09:55:24;;;;;;;;;;;;;;;27.88;31.69;100308.13;5056766;28;948;-33
2021/05/06 09:57:50;;;;;;;;;;;;;;;27.88;32.02;100329.75;5058798;28;1902;-33
2021/05/06 10:00:16;;;;;;;;;;;;;;;27.94;32.30;100312.75;5041268;28;1107;-35
2021/05/06 10:02:41;;;;;;;;;;;;;;;27.91;31.80;100307.72;5059064;28;793;-34
2021/05/06 10:05:07;;;;;;;;;;;;;;;27.91;31.89;100309.63;5059371;28;755;-37
2021/05/06 10:07:33;;;;;;;;;;;;;;;27.92;31.96;100295.06;5058898;28;794;-32
2021/05/06 10:10:01;;;;;;;;;;;;;;;27.91;32.08;100315.84;5058334;28;956;-34
2021/05/06 10:12:30;;;;;;;;;;;;;;;28.02;31.88;100327.13;5058583;28;783;-36
2021/05/06 10:14:56;;;;;;;;;;;;;;;28.04;31.79;100319.66;5058783;28;759;-35
2021/05/06 10:17:21;;;;;;;;;;;;;;;27.94;31.89;100315.47;5058176;28;1961;-33
2021/05/06 10:19:47;;;;;;;;;;;;;;;27.86;31.71;100313.75;5058431;28;1219;-37
2021/05/06 10:22:15;;;;;;;;;;;;;;;27.73;32.18;100311.78;5058693;28;801;-37
2021/05/06 10:24:41;;;;;;;;;;;;;;;27.74;31.99;100318.03;5058370;28;955;-33
2021/05/06 10:27:08;;;;;;;;;;;;;;;27.79;31.93;100312.88;5057731;28;827;-34
2021/05/06 10:29:34;;;;;;;;;;;;;;;27.70;32.07;100281.63;5040304;28;764;-36
2021/05/06 10:31:59;;;;;;;;;;;;;;;27.57;32.37;100302.09;5040533;28;809;-34
2021/05/06 10:34:24;;;;;;;;;;;;;;;27.60;32.54;100315.22;5040700;28;760;-31
2021/05/06 10:36:50;;;;;;;;;;;;;;;27.54;32.37;100309.75;5040736;28;748;-32
2021/05/06 10:39:15;;;;;;;;;;;;;;;27.54;32.26;100312.47;5058091;28;1955;-37
2021/05/06 10:41:40;;;;;;;;;;;;;;;27.61;32.51;100307.97;5058460;28;834;-34
2021/05/06 10:44:06;;;;;;;;;;;;;;;27.67;32.39;100304.47;5058351;28;782;-34
2021/05/06 10:47:02;;;;;;;;;;;;;;;27.62;32.18;100301.50;5058322;28;803;-33
2021/05/06 10:49:28;;;;;;;;;;;;;;;27.50;32.37;100317.41;5058393;28;774;-35
2021/05/06 10:54:56;;;;;;;;;;;;;;;27.68;32.20;100329.59;5057552;28;936;-35
2021/05/06 10:57:27;;;;;;;;;;;;;;;27.67;32.24;100317.97;5057846;28;1901;-34
2021/05/06 10:59:54;;;;;;;;;;;;;;;27.59;32.22;100335.13;5057898;28;1426;-36
2021/05/06 11:02:31;;;;;;;;;;;;;;;27.58;32.39;100343.44;5058225;28;763;-35
2021/05/06 11:05:09;;;;;;;;;;;;;;;27.62;32.51;100328.53;5057754;28;803;-35
2021/05/06 11:07:34;;;;;;;;;;;;;;;27.79;32.26;100325.56;5057448;28;918;-38
2021/05/06 11:10:02;;;;;;;;;;;;;;;27.79;31.68;100330.97;5042433;28;995;-35
2021/05/06 11:12:28;;;;;;;;;;;;;;;27.70;32.18;100327.56;5037538;28;911;-34
2021/05/06 11:15:02;;;;;;;;;;;;;;;27.80;31.81;100330.75;5051361;28;908;-32
2021/05/06 11:17:34;;;;;;;;;;;;;;;27.85;32.07;100338.28;5057479;28;1971;-35
2021/05/06 11:19:59;;;;;;;;;;;;;;;27.87;31.59;100337.06;5057238;28;1256;-34
2021/05/06 11:22:46;;;;;;;;;;;;;;;27.81;31.98;100340.53;5057583;28;783;-37
2021/05/06 11:27:55;;;;;;;;;;;;;;;27.97;31.62;100335.84;5057022;28;625;-38
2021/05/06 11:30:36;;;;;;;;;;;;;;;27.97;31.23;100336.69;5057758;28;800;-35
2021/05/06 11:35:58;;;;;;;;;;;;;;;28.01;31.42;100331.69;5057018;28;684;-37
2021/05/06 11:38:39;;;;;;;;;;;;;;;27.83;31.77;100330.34;5056713;28;1910;-31
2021/05/06 11:41:13;;;;;;;;;;;;;;;27.82;31.93;100341.38;5056761;28;851;-35
2021/05/06 11:43:43;;;;;;;;;;;;;;;27.86;31.76;100331.84;5057292;28;786;-36
2021/05/06 11:46:16;;;;;;;;;;;;;;;27.72;31.53;100347.97;5057000;28;806;-37
2021/05/06 11:48:45;;;;;;;;;;;;;;;27.70;31.90;100332.97;5056873;28;1414;-38
2021/05/06 11:51:11;;;;;;;;;;;;;;;27.66;31.85;100334.38;5056786;28;1584;-34
2021/05/06 11:53:37;;;;;;;;;;;;;;;27.61;31.74;100341.19;5071656;28;1454;-37
2021/05/06 11:56:09;;;;;;;;;;;;;;;27.64;31.80;100339.97;5056938;28;851;-38
2021/05/06 11:58:37;;;;;;;;;;;;;;;27.68;31.74;100341.28;5056472;28;1951;-32
2021/05/06 12:01:03;;;;;;;;;;;;;;;27.69;31.86;100348.38;5056773;28;735;-35
2021/05/06 12:03:38;;;;;;;;;;;;;;;27.79;31.74;100353.44;5057188;28;791;-37
2021/05/06 12:06:03;;;;;;;;;;;;;;;27.76;31.79;100337.56;5056884;28;767;-35
2021/05/06 12:08:33;;;;;;;;;;;;;;;27.73;31.70;100344.22;5038104;28;1203;-35
2021/05/06 12:11:02;;;;;;;;;;;;;;;27.74;31.65;100345.88;5056781;28;747;-36
2021/05/06 12:13:29;;;;;;;;;;;;;;;27.75;31.84;100354.84;5056408;28;866;-36
2021/05/06 12:16:09;;;;;;;;;;;;;;;27.79;31.63;100348.03;5056680;28;830;-35
2021/05/06 12:18:34;;;;;;;;;;;;;;;27.84;31.71;100350.13;5056819;28;1898;-37
2021/05/06 12:21:04;;;;;;;;;;;;;;;27.97;31.23;100354.78;5056422;28;1065;-35
2021/05/06 12:23:29;;;;;;;;;;;;;;;27.93;31.38;100338.13;5055880;28;998;-37
2021/05/06 12:25:54;;;;;;;;;;;;;;;27.98;31.40;100345.63;5056662;28;835;-37
2021/05/06 12:28:20;;;;;;;;;;;;;;;28.05;31.48;100353.78;5056298;28;797;-34
2021/05/06 12:30:45;;;;;;;;;;;;;;;28.21;30.86;100348.03;5056104;28;832;-35
2021/05/06 12:33:10;;;;;;;;;;;;;;;28.16;31.14;100345.09;5056697;28;775;-35
2021/05/06 12:38:35;;;;;;;;;;;;;;;28.09;30.77;100353.16;5055790;28;1910;-37
2021/05/06 12:41:07;;;;;;;;;;;;;;;28.07;30.97;100355.25;5071772;28;1267;-34
2021/05/06 12:43:34;;;;;;;;;;;;;;;28.20;30.74;100351.78;5056428;28;849;-36
2021/05/06 12:46:05;;;;;;;;;;;;;;;28.22;30.67;100352.44;5056140;28;861;-37
2021/05/06 12:48:41;;;;;;;;;;;;;;;28.26;30.51;100352.84;5055858;28;783;-35
2021/05/06 12:51:06;;;;;;;;;;;;;;;28.19;30.32;100355.53;5057667;28;771;-36
2021/05/06 12:53:32;;;;;;;;;;;;;;;28.23;30.12;100361.34;5060069;28;915;-38
2021/05/06 12:55:58;;;;;;;;;;;;;;;28.26;30.06;100370.97;5059840;28;781;-37
2021/05/06 12:58:32;;;;;;;;;;;;;;;28.23;30.11;100356.78;5060039;28;1898;-33
2021/05/06 13:00:58;;;;;;;;;;;;;;;28.22;30.58;100362.41;5060203;28;801;-36
2021/05/06 13:03:29;;;;;;;;;;;;;;;28.33;30.18;100355.59;5059666;28;841;-36
2021/05/06 13:05:54;;;;;;;;;;;;;;;28.25;30.11;100370.13;5060175;28;821;-32
2021/05/06 13:08:32;;;;;;;;;;;;;;;28.15;30.39;100367.78;5059743;28;1008;-33
2021/05/06 13:11:00;;;;;;;;;;;;;;;28.03;30.49;100367.50;5059752;28;803;-36
2021/05/06 13:13:37;;;;;;;;;;;;;;;27.98;30.64;100378.06;5060334;28;849;-34
2021/05/06 13:16:03;;;;;;;;;;;;;;;28.14;30.64;100381.50;5059594;28;826;-37
2021/05/06 13:18:28;;;;;;;;;;;;;;;28.08;30.63;100383.97;5059982;28;1902;-37
2021/05/06 13:20:53;;;;;;;;;;;;;;;28.03;30.78;100381.00;5059606;28;1128;-36
2021/05/06 13:23:22;;;;;;;;;;;;;;;28.25;30.52;100375.53;5059471;28;923;-37
2021/05/06 13:25:48;;;;;;;;;;;;;;;28.26;30.08;100376.38;5059356;28;795;-33
2021/05/06 13:28:14;;;;;;;;;;;;;;;28.37;30.44;100378.53;5059399;28;870;-31
2021/05/06 13:30:40;;;;;;;;;;;;;;;28.52;29.81;100385.66;5059355;28;800;-38
2021/05/06 13:33:23;;;;;;;;;;;;;;;28.65;29.54;100380.31;5059843;28;809;-36
2021/05/06 13:36:04;;;;;;;;;;;;;;;28.57;29.36;100383.19;5051826;28;862;-34
2021/05/06 13:39:05;;;;;;;;;;;;;;;28.26;29.93;100379.06;5059228;28;1957;-32
2021/05/06 13:41:33;;;;;;;;;;;;;;;27.97;30.76;100390.75;5037154;28;1162;-36
2021/05/06 13:44:00;;;;;;;;;;;;;;;28.04;30.62;100382.69;5054790;28;935;-33
2021/05/06 13:46:25;;;;;;;;;;;;;;;28.16;30.32;100385.66;5059694;28;817;-36
2021/05/06 13:48:51;;;;;;;;;;;;;;;28.27;30.12;100388.84;5059252;28;794;-36
2021/05/06 13:51:16;;;;;;;;;;;;;;;28.18;30.16;100378.19;5059139;28;803;-34
2021/05/06 13:53:43;;;;;;;;;;;;;;;28.03;30.25;100380.19;5058740;28;936;-36
2021/05/06 13:56:42;;;;;;;;;;;;;;;27.97;30.91;100384.50;5059536;28;786;-35
2021/05/06 13:59:08;;;;;;;;;;;;;;;27.93;30.91;100377.81;5058957;28;1906;-37
2021/05/06 14:01:33;;;;;;;;;;;;;;;27.92;30.95;100379.72;5059042;28;810;-36
2021/05/06 14:03:58;;;;;;;;;;;;;;;27.85;31.12;100370.69;5073788;28;754;-35
2021/05/06 14:06:24;;;;;;;;;;;;;;;27.90;30.83;100362.84;5059221;28;878;-36
2021/05/06 14:08:49;;;;;;;;;;;;;;;27.86;31.06;100372.41;5058628;28;947;-34
2021/05/06 14:11:14;;;;;;;;;;;;;;;27.84;31.18;100366.34;5058685;28;840;-34
2021/05/06 14:13:40;;;;;;;;;;;;;;;28.02;31.31;100376.66;5058900;28;767;-33
2021/05/06 14:16:05;;;;;;;;;;;;;;;28.05;30.73;100380.81;5059108;28;800;-34
2021/05/06 14:18:31;;;;;;;;;;;;;;;27.89;30.90;100379.25;5058763;28;1906;-37
2021/05/06 14:21:01;;;;;;;;;;;;;;;27.97;31.19;100388.06;5058324;28;1060;-36
2021/05/06 14:23:27;;;;;;;;;;;;;;;28.02;30.96;100392.03;5056108;28;1002;-37
2021/05/06 14:25:52;;;;;;;;;;;;;;;28.03;30.82;100389.13;5038496;28;819;-36
2021/05/06 14:28:18;;;;;;;;;;;;;;;28.10;30.47;100387.31;5038887;28;724;-32
2021/05/06 14:30:43;;;;;;;;;;;;;;;28.11;30.36;100383.56;5038549;28;783;-37
2021/05/06 14:33:09;;;;;;;;;;;;;;;28.02;30.32;100382.06;5038182;28;816;-33
2021/05/06 14:35:34;;;;;;;;;;;;;;;28.08;30.71;100396.63;5038579;28;780;-32
2021/05/06 14:38:02;;;;;;;;;;;;;;;28.20;29.90;100405.03;5038246;28;1910;-36
2021/05/06 14:40:27;;;;;;;;;;;;;;;28.20;29.34;100392.34;5038428;28;952;-35
2021/05/06 14:42:53;;;;;;;;;;;;;;;28.19;29.15;100406.06;5038355;28;848;-36
2021/05/06 14:45:18;;;;;;;;;;;;;;;28.10;29.58;100402.69;5038196;28;827;-37
2021/05/06 14:47:44;;;;;;;;;;;;;;;27.97;29.71;100404.28;5037931;28;832;-35
2021/05/06 14:50:10;;;;;;;;;;;;;;;28.04;29.17;100409.75;5038542;28;775;-33
2021/05/06 14:55:38;;;;;;;;;;;;;;;27.99;30.16;100417.59;5037873;28;597;-32
2021/05/06 14:58:03;;;;;;;;;;;;;;;28.07;30.00;100422.00;5052626;28;1964;-35
2021/05/06 15:00:29;;;;;;;;;;;;;;;28.04;29.83;100407.03;5037587;28;809;-35
2021/05/06 15:02:54;;;;;;;;;;;;;;;28.13;28.69;100412.28;5037822;28;827;-38
2021/05/06 15:05:21;;;;;;;;;;;;;;;28.04;28.86;100409.75;5038124;28;760;-36
2021/05/06 15:07:47;;;;;;;;;;;;;;;27.96;29.53;100410.69;5037833;28;787;-37
2021/05/06 15:10:12;;;;;;;;;;;;;;;28.03;29.14;100412.63;5054078;28;1432;-34
2021/05/06 15:12:38;;;;;;;;;;;;;;;28.06;29.20;100406.84;5057120;28;899;-33
2021/05/06 15:15:04;;;;;;;;;;;;;;;28.02;29.39;100410.94;5056990;28;1008;-35
2021/05/06 15:20:16;;;;;;;;;;;;;;;27.82;29.92;100412.50;5041998;28;1055;-36
2021/05/06 15:22:41;;;;;;;;;;;;;;;27.93;30.05;100412.97;5057579;28;771;-38
2021/05/06 15:25:10;;;;;;;;;;;;;;;27.91;29.94;100415.84;5057182;28;959;-37
2021/05/06 15:27:35;;;;;;;;;;;;;;;27.94;29.64;100420.91;5057025;28;804;-35
2021/05/06 15:30:00;;;;;;;;;;;;;;;27.87;30.06;100423.56;5057466;28;811;-36
2021/05/06 15:32:26;;;;;;;;;;;;;;;27.76;30.03;100413.25;5057269;28;740;-36
2021/05/06 15:34:53;;;;;;;;;;;;;;;27.72;30.40;100422.78;5056934;28;820;-37
2021/05/06 15:37:18;;;;;;;;;;;;;;;27.85;30.21;100419.34;5057232;28;1926;-36
2021/05/06 15:39:43;;;;;;;;;;;;;;;27.80;29.02;100414.53;5057068;28;944;-35
2021/05/06 15:42:09;;;;;;;;;;;;;;;27.87;29.54;100420.00;5057343;28;758;-35
2021/05/06 15:44:38;;;;;;;;;;;;;;;27.90;28.57;100427.72;5057039;28;848;-37
2021/05/06 15:47:04;;;;;;;;;;;;;;;26.84;23.43;100424.56;5056602;28;862;-36
2021/05/06 15:49:33;;;;;;;;;;;;;;;26.98;22.74;100426.38;5057579;28;771;-35
2021/05/06 15:51:58;;;;;;;;;;;;;;;26.70;22.59;100431.63;5057267;28;768;-35
2021/05/06 15:54:24;;;;;;;;;;;;;;;26.84;22.53;100441.56;5056705;28;869;-36
2021/05/06 15:56:49;;;;;;;;;;;;;;;26.92;22.63;100435.25;5057018;28;803;-40
2021/05/06 15:59:14;;;;;;;;;;;;;;;26.85;22.19;100440.56;5056872;28;1961;-40
2021/05/06 16:01:40;;;;;;;;;;;;;;;26.89;22.43;100443.72;5056863;28;843;-39
2021/05/06 16:04:08;;;;;;;;;;;;;;;26.97;25.99;100438.22;5057034;28;744;-40
2021/05/06 16:06:33;;;;;;;;;;;;;;;27.36;26.04;100451.53;5052703;28;869;-38
2021/05/06 16:08:58;;;;;;;;;;;;;;;27.55;26.66;100463.56;5052779;28;801;-38
2021/05/06 16:11:24;;;;;;;;;;;;;;;27.66;26.07;100450.56;5042764;28;902;-39
2021/05/06 16:13:50;;;;;;;;;;;;;;;27.82;26.08;100461.13;5036735;28;847;-38
2021/05/06 16:16:43;;;;;;;;;;;;;;;27.86;25.85;100475.91;5036890;28;818;-39
2021/05/06 16:19:10;;;;;;;;;;;;;;;27.79;25.46;100483.16;5041006;28;1906;-37
2021/05/06 16:21:35;;;;;;;;;;;;;;;27.53;27.28;100483.72;5038691;28;1104;-39
2021/05/06 16:24:01;;;;;;;;;;;;;;;27.66;26.99;100483.81;5029490;28;1011;-37
2021/05/06 16:26:26;;;;;;;;;;;;;;;27.70;26.98;100484.28;5018630;28;1097;-40
2021/05/06 16:28:52;;;;;;;;;;;;;;;27.79;27.39;100483.16;5036723;28;743;-39
2021/05/06 16:31:17;;;;;;;;;;;;;;;27.77;27.28;100474.41;5036750;28;876;-37
2021/05/06 16:33:48;;;;;;;;;;;;;;;27.70;27.35;100473.50;5036308;28;807;-39